Time;durP1;ratioP1;P1;durP2;ratioP2;P2;SDS_P1;SDS_P2;PMS_P1;PMS_P2;Temp;Humidity;BMP_temperature;BMP_pressure;BME280_temperature;BME280_humidity;BME280_pressure;Samples;Min_cycle;Max_cycle;Signal;HPM_P1;HPM_P2
2022/10/25 00:00:10;;;;;;;;;1.00;1.00;;;;;;;;5082189;27;45352;-80
2022/10/25 00:02:35;;;;;;;;;1.67;1.33;;;;;;;;5095803;27;45315;-80
2022/10/25 00:05:01;;;;;;;;;3.67;1.00;;;;;;;;5097351;27;45357;-80
2022/10/25 00:07:26;;;;;;;;;2.00;0.00;;;;;;;;5087571;27;45451;-80
2022/10/25 00:09:51;;;;;;;;;1.00;1.00;;;;;;;;5090907;27;45528;-80
2022/10/25 00:12:17;;;;;;;;;2.00;1.00;;;;;;;;5090089;27;45150;-80
2022/10/25 00:14:42;;;;;;;;;2.00;2.00;;;;;;;;5091675;27;45249;-80
2022/10/25 00:17:08;;;;;;;;;1.00;1.00;;;;;;;;5091718;27;45292;-80
2022/10/25 00:19:33;;;;;;;;;0.33;0.33;;;;;;;;5086950;27;48201;-80
2022/10/25 00:21:58;;;;;;;;;2.00;1.00;;;;;;;;5092845;27;45396;-80
2022/10/25 00:24:23;;;;;;;;;1.00;1.00;;;;;;;;5073178;28;45319;-80
2022/10/25 00:26:49;;;;;;;;;2.00;0.00;;;;;;;;5079304;27;45746;-79
2022/10/25 00:29:15;;;;;;;;;0.67;0.67;;;;;;;;5078925;27;46825;-80
2022/10/25 00:31:40;;;;;;;;;4.33;2.00;;;;;;;;5098236;27;45255;-80
2022/10/25 00:34:05;;;;;;;;;2.33;1.00;;;;;;;;5099097;27;45398;-80
2022/10/25 00:36:30;;;;;;;;;1.00;1.00;;;;;;;;5099948;27;45420;-80
2022/10/25 00:38:57;;;;;;;;;2.00;2.00;;;;;;;;5090703;27;46462;-80
2022/10/25 00:41:24;;;;;;;;;1.00;1.00;;;;;;;;5083382;27;45313;-80
2022/10/25 00:43:51;;;;;;;;;2.33;0.00;;;;;;;;5092945;27;45406;-80
2022/10/25 00:46:19;;;;;;;;;4.00;2.00;;;;;;;;5084476;27;45242;-80
2022/10/25 00:48:56;;;;;;;;;4.00;1.67;;;;;;;;5091008;27;45956;-80
2022/10/25 00:51:24;;;;;;;;;4.00;1.00;;;;;;;;5085540;27;45511;-80
2022/10/25 00:53:50;;;;;;;;;1.33;1.33;;;;;;;;5090926;27;45424;-80
2022/10/25 00:56:18;;;;;;;;;1.00;1.00;;;;;;;;5080771;27;45451;-80
2022/10/25 00:58:45;;;;;;;;;1.67;1.67;;;;;;;;5090474;27;45331;-80
2022/10/25 01:01:13;;;;;;;;;1.00;1.00;;;;;;;;5088529;27;45268;-80
2022/10/25 01:03:38;;;;;;;;;5.00;1.00;;;;;;;;5080808;27;45398;-81
2022/10/25 01:06:06;;;;;;;;;2.00;1.00;;;;;;;;5098524;27;45196;-80
2022/10/25 01:08:32;;;;;;;;;2.00;1.00;;;;;;;;5092727;27;45247;-80
2022/10/25 01:10:57;;;;;;;;;2.67;1.33;;;;;;;;5094133;27;44915;-80
2022/10/25 01:13:22;;;;;;;;;2.67;2.00;;;;;;;;5099851;27;45217;-79
2022/10/25 01:15:47;;;;;;;;;2.67;1.00;;;;;;;;5090597;27;45204;-80
2022/10/25 01:18:18;;;;;;;;;4.00;2.33;;;;;;;;5099588;27;45354;-80
2022/10/25 01:21:00;;;;;;;;;2.00;2.00;;;;;;;;5083865;27;45298;-80
2022/10/25 01:23:44;;;;;;;;;1.67;1.00;;;;;;;;5070314;27;45444;-81
2022/10/25 01:26:09;;;;;;;;;3.33;1.33;;;;;;;;5087979;27;45509;-81
2022/10/25 01:28:53;;;;;;;;;4.00;1.00;;;;;;;;5097474;27;45625;-80
2022/10/25 01:31:39;;;;;;;;;3.00;1.00;;;;;;;;5086896;27;44824;-80
2022/10/25 01:34:04;;;;;;;;;2.67;1.00;;;;;;;;5091528;27;45509;-81
2022/10/25 01:36:50;;;;;;;;;2.00;2.00;;;;;;;;5088751;27;45477;-80
2022/10/25 01:39:22;;;;;;;;;1.00;1.00;;;;;;;;5075217;27;48123;-80
2022/10/25 01:42:08;;;;;;;;;4.33;2.00;;;;;;;;5094400;27;45272;-80
2022/10/25 01:44:42;;;;;;;;;5.00;2.00;;;;;;;;5065983;28;45463;-80
2022/10/25 01:47:10;;;;;;;;;3.33;2.00;;;;;;;;5084305;27;45245;-79
2022/10/25 01:49:46;;;;;;;;;1.00;1.00;;;;;;;;5080334;27;45691;-80
2022/10/25 01:52:12;;;;;;;;;8.00;1.67;;;;;;;;5086730;27;45261;-80
2022/10/25 01:54:37;;;;;;;;;2.00;1.00;;;;;;;;5098583;27;45413;-80
2022/10/25 01:57:02;;;;;;;;;3.00;3.00;;;;;;;;5088422;27;45474;-80
2022/10/25 01:59:46;;;;;;;;;2.50;1.00;;;;;;;;5080889;27;45285;-80
2022/10/25 02:02:17;;;;;;;;;2.00;0.00;;;;;;;;5090965;27;45510;-80
2022/10/25 02:04:43;;;;;;;;;5.00;1.67;;;;;;;;5087893;27;45418;-80
2022/10/25 02:07:31;;;;;;;;;1.33;1.33;;;;;;;;5092708;27;45078;-80
2022/10/25 02:09:56;;;;;;;;;3.33;1.00;;;;;;;;5091521;27;45449;-80
2022/10/25 02:12:26;;;;;;;;;1.33;1.33;;;;;;;;5074749;27;45318;-80
2022/10/25 02:14:56;;;;;;;;;4.00;1.00;;;;;;;;5087159;27;45174;-80
2022/10/25 02:17:24;;;;;;;;;2.67;1.00;;;;;;;;5086505;27;45562;-80
2022/10/25 02:19:50;;;;;;;;;3.00;1.00;;;;;;;;5087093;27;45410;-80
2022/10/25 02:22:18;;;;;;;;;3.00;1.33;;;;;;;;5085213;27;45273;-80
2022/10/25 02:24:45;;;;;;;;;2.00;2.00;;;;;;;;5087669;27;45318;-79
2022/10/25 02:27:12;;;;;;;;;1.00;1.00;;;;;;;;5079297;27;45472;-79
2022/10/25 02:29:38;;;;;;;;;0.00;0.00;;;;;;;;5076378;27;46145;-80
2022/10/25 02:32:04;;;;;;;;;5.33;1.67;;;;;;;;5084538;27;45293;-80
2022/10/25 02:34:29;;;;;;;;;2.00;1.00;;;;;;;;5079175;27;45283;-80
2022/10/25 02:36:55;;;;;;;;;1.33;1.00;;;;;;;;5097861;27;45204;-80
2022/10/25 02:39:21;;;;;;;;;1.33;1.00;;;;;;;;5074603;27;47124;-80
2022/10/25 02:41:46;;;;;;;;;2.67;1.00;;;;;;;;5094187;27;45245;-80
2022/10/25 02:44:11;;;;;;;;;2.67;1.67;;;;;;;;5095891;27;45233;-80
2022/10/25 02:46:37;;;;;;;;;3.00;1.67;;;;;;;;5087943;27;45362;-80
2022/10/25 02:49:02;;;;;;;;;1.00;1.00;;;;;;;;5092083;27;46419;-80
2022/10/25 02:51:27;;;;;;;;;0.00;0.00;;;;;;;;5089165;27;45250;-80
2022/10/25 02:53:52;;;;;;;;;3.33;1.67;;;;;;;;5096845;27;45367;-80
2022/10/25 02:56:19;;;;;;;;;1.00;1.00;;;;;;;;5088979;27;45196;-80
2022/10/25 02:58:45;;;;;;;;;1.00;0.00;;;;;;;;5091340;27;45756;-79
2022/10/25 03:01:11;;;;;;;;;1.00;1.00;;;;;;;;5090349;27;45304;-80
2022/10/25 03:03:36;;;;;;;;;1.33;1.00;;;;;;;;5077229;27;45961;-80
2022/10/25 03:06:02;;;;;;;;;1.33;1.33;;;;;;;;5090270;27;45357;-79
2022/10/25 03:08:27;;;;;;;;;1.00;1.00;;;;;;;;5097638;27;46159;-80
2022/10/25 03:10:52;;;;;;;;;2.67;2.00;;;;;;;;5090137;27;45353;-80
2022/10/25 03:13:18;;;;;;;;;3.00;2.00;;;;;;;;5097454;27;46212;-80
2022/10/25 03:15:44;;;;;;;;;2.00;1.00;;;;;;;;5092769;27;45380;-80
2022/10/25 03:18:09;;;;;;;;;0.00;0.00;;;;;;;;5095944;27;45426;-80
2022/10/25 03:20:35;;;;;;;;;2.00;0.33;;;;;;;;5093656;27;45217;-80
2022/10/25 03:23:00;;;;;;;;;1.33;1.00;;;;;;;;5074203;27;45282;-80
2022/10/25 03:25:25;;;;;;;;;2.00;2.00;;;;;;;;5090267;27;45229;-80
2022/10/25 03:27:50;;;;;;;;;3.00;0.33;;;;;;;;5090744;27;46162;-80
2022/10/25 03:30:16;;;;;;;;;1.00;1.00;;;;;;;;5091964;27;45342;-80
2022/10/25 03:32:41;;;;;;;;;3.00;1.00;;;;;;;;5091243;27;45220;-80
2022/10/25 03:35:07;;;;;;;;;1.00;1.00;;;;;;;;5096621;27;45406;-80
2022/10/25 03:37:32;;;;;;;;;2.67;1.00;;;;;;;;5095115;27;45412;-80
2022/10/25 03:39:57;;;;;;;;;4.00;1.00;;;;;;;;5096893;27;45378;-80
2022/10/25 03:42:23;;;;;;;;;4.33;2.00;;;;;;;;5098569;27;45501;-80
2022/10/25 03:44:48;;;;;;;;;2.00;0.67;;;;;;;;5084783;27;45556;-80
2022/10/25 03:47:13;;;;;;;;;1.67;1.00;;;;;;;;5087835;27;46280;-80
2022/10/25 03:49:38;;;;;;;;;3.00;1.33;;;;;;;;5095197;27;45368;-80
2022/10/25 03:52:06;;;;;;;;;3.00;1.00;;;;;;;;5089662;27;45254;-80
2022/10/25 03:54:31;;;;;;;;;2.00;2.00;;;;;;;;5084469;27;45413;-80
2022/10/25 03:56:56;;;;;;;;;2.67;1.00;;;;;;;;5077536;27;45379;-80
2022/10/25 03:59:21;;;;;;;;;1.00;1.00;;;;;;;;5084726;27;45331;-80
2022/10/25 04:01:46;;;;;;;;;1.00;1.00;;;;;;;;5074700;27;45272;-80
2022/10/25 04:04:12;;;;;;;;;6.67;2.00;;;;;;;;5082352;27;45320;-80
2022/10/25 04:06:37;;;;;;;;;3.00;1.00;;;;;;;;5092409;27;45356;-80
2022/10/25 04:09:02;;;;;;;;;2.00;1.00;;;;;;;;5091452;27;45299;-80
2022/10/25 04:11:27;;;;;;;;;1.00;1.00;;;;;;;;5073747;27;45321;-80
2022/10/25 04:13:52;;;;;;;;;2.00;1.00;;;;;;;;5087775;27;45640;-79
2022/10/25 04:16:18;;;;;;;;;2.00;1.67;;;;;;;;5092819;27;46404;-80
2022/10/25 04:18:43;;;;;;;;;3.33;1.67;;;;;;;;5081036;27;45307;-80
2022/10/25 04:21:08;;;;;;;;;1.00;0.00;;;;;;;;5088128;27;45759;-80
2022/10/25 04:23:34;;;;;;;;;2.00;1.33;;;;;;;;5080159;27;45977;-80
2022/10/25 04:25:59;;;;;;;;;3.00;1.00;;;;;;;;5086650;27;46151;-80
2022/10/25 04:28:24;;;;;;;;;1.00;1.00;;;;;;;;5089138;27;45221;-80
2022/10/25 04:30:50;;;;;;;;;1.00;1.00;;;;;;;;5082033;27;45247;-80
2022/10/25 04:33:15;;;;;;;;;2.33;1.33;;;;;;;;5085073;27;46077;-80
2022/10/25 04:35:40;;;;;;;;;3.00;1.00;;;;;;;;5074844;27;46259;-80
2022/10/25 04:38:05;;;;;;;;;1.00;1.00;;;;;;;;5091609;27;45327;-80
2022/10/25 04:40:31;;;;;;;;;1.00;1.00;;;;;;;;5096091;27;45217;-80
2022/10/25 04:42:56;;;;;;;;;1.33;1.00;;;;;;;;5094426;27;45492;-79
2022/10/25 04:45:21;;;;;;;;;1.33;1.33;;;;;;;;5083947;27;46256;-80
2022/10/25 04:47:47;;;;;;;;;4.00;2.00;;;;;;;;5094028;27;45277;-80
2022/10/25 04:50:12;;;;;;;;;2.00;1.00;;;;;;;;5072408;28;45585;-80
2022/10/25 04:52:37;;;;;;;;;2.00;1.00;;;;;;;;5074220;27;45850;-80
2022/10/25 04:55:02;;;;;;;;;6.67;1.00;;;;;;;;5080807;27;45335;-80
2022/10/25 04:57:28;;;;;;;;;2.00;2.00;;;;;;;;5079911;27;45370;-80
2022/10/25 04:59:53;;;;;;;;;4.00;1.33;;;;;;;;5080408;27;45272;-80
2022/10/25 05:02:18;;;;;;;;;2.00;2.00;;;;;;;;5090342;27;45456;-80
2022/10/25 05:04:44;;;;;;;;;2.00;2.00;;;;;;;;5082651;27;45401;-80
2022/10/25 05:07:09;;;;;;;;;2.67;2.67;;;;;;;;5092422;27;45327;-80
2022/10/25 05:09:34;;;;;;;;;4.00;2.00;;;;;;;;5068264;28;45410;-80
2022/10/25 05:11:59;;;;;;;;;4.67;2.00;;;;;;;;5095399;27;45301;-79
2022/10/25 05:14:24;;;;;;;;;3.00;2.00;;;;;;;;5089706;27;45351;-80
2022/10/25 05:16:50;;;;;;;;;2.00;2.00;;;;;;;;5094591;27;45433;-80
2022/10/25 05:19:15;;;;;;;;;3.67;2.67;;;;;;;;5093584;27;45260;-80
2022/10/25 05:21:40;;;;;;;;;4.00;2.33;;;;;;;;5093170;27;45707;-80
2022/10/25 05:24:05;;;;;;;;;5.00;2.00;;;;;;;;5099736;27;46279;-80
2022/10/25 05:26:30;;;;;;;;;2.00;2.00;;;;;;;;5071925;27;44896;-80
2022/10/25 05:28:56;;;;;;;;;3.00;2.00;;;;;;;;5097592;27;45426;-80
2022/10/25 05:31:30;;;;;;;;;4.00;3.00;;;;;;;;5061615;27;45390;-80
2022/10/25 05:33:57;;;;;;;;;3.00;3.00;;;;;;;;5073039;28;47602;-80
2022/10/25 05:36:22;;;;;;;;;3.00;2.00;;;;;;;;5084499;27;45300;-80
2022/10/25 05:38:47;;;;;;;;;5.00;3.00;;;;;;;;5074332;27;45330;-80
2022/10/25 05:41:14;;;;;;;;;2.00;2.00;;;;;;;;5084841;27;45280;-80
2022/10/25 05:43:39;;;;;;;;;6.67;3.00;;;;;;;;5070386;27;47122;-80
2022/10/25 05:46:05;;;;;;;;;5.00;3.67;;;;;;;;5073472;27;45446;-80
2022/10/25 05:48:30;;;;;;;;;4.00;4.00;;;;;;;;5089489;27;45410;-80
2022/10/25 05:51:07;;;;;;;;;4.00;3.00;;;;;;;;5100472;27;45545;-80
2022/10/25 05:53:32;;;;;;;;;4.00;2.67;;;;;;;;5089305;27;46293;-80
2022/10/25 05:55:58;;;;;;;;;4.00;4.00;;;;;;;;5085494;27;45213;-80
2022/10/25 05:58:24;;;;;;;;;4.33;3.67;;;;;;;;5092254;27;45522;-80
2022/10/25 06:00:49;;;;;;;;;2.67;2.67;;;;;;;;5085008;27;45542;-80
2022/10/25 06:03:14;;;;;;;;;3.67;2.67;;;;;;;;5089314;27;46496;-80
2022/10/25 06:05:39;;;;;;;;;3.67;3.00;;;;;;;;5095614;27;45360;-79
2022/10/25 06:08:04;;;;;;;;;6.00;4.00;;;;;;;;5093464;27;45294;-80
2022/10/25 06:10:30;;;;;;;;;6.67;4.67;;;;;;;;5086124;27;45361;-80
2022/10/25 06:12:55;;;;;;;;;4.00;4.00;;;;;;;;5072011;27;46937;-80
2022/10/25 06:15:20;;;;;;;;;4.33;4.00;;;;;;;;5074881;28;45473;-80
2022/10/25 06:17:45;;;;;;;;;7.00;4.00;;;;;;;;5085000;27;45440;-80
2022/10/25 06:20:10;;;;;;;;;3.33;3.33;;;;;;;;5090407;27;45425;-80
2022/10/25 06:22:36;;;;;;;;;4.33;4.00;;;;;;;;5093827;27;45489;-80
2022/10/25 06:25:01;;;;;;;;;6.67;4.00;;;;;;;;5092326;27;45339;-80
2022/10/25 06:27:26;;;;;;;;;4.00;3.00;;;;;;;;5098347;27;45498;-80
2022/10/25 06:29:51;;;;;;;;;2.00;2.00;;;;;;;;5080798;27;45724;-80
2022/10/25 06:32:16;;;;;;;;;3.00;2.33;;;;;;;;5092933;27;46177;-80
2022/10/25 06:34:41;;;;;;;;;6.00;4.00;;;;;;;;5100681;27;45209;-80
2022/10/25 06:37:07;;;;;;;;;6.00;2.00;;;;;;;;5098190;27;45347;-80
2022/10/25 06:39:32;;;;;;;;;4.00;2.00;;;;;;;;5077693;27;45351;-80
2022/10/25 06:41:57;;;;;;;;;1.00;1.00;;;;;;;;5092759;27;46213;-81
2022/10/25 06:44:22;;;;;;;;;4.67;2.00;;;;;;;;5092951;27;45418;-79
2022/10/25 06:46:47;;;;;;;;;3.33;3.00;;;;;;;;5075849;27;45500;-79
2022/10/25 06:49:12;;;;;;;;;4.67;4.00;;;;;;;;5077635;28;45407;-80
2022/10/25 06:51:38;;;;;;;;;4.00;2.00;;;;;;;;5090596;27;45243;-79
2022/10/25 06:54:06;;;;;;;;;4.00;2.00;;;;;;;;5089115;27;45474;-79
2022/10/25 06:56:32;;;;;;;;;2.00;2.00;;;;;;;;5078577;27;45363;-79
2022/10/25 06:58:57;;;;;;;;;4.00;2.00;;;;;;;;5082184;27;46031;-79
2022/10/25 07:01:23;;;;;;;;;3.67;3.00;;;;;;;;5071754;27;46956;-80
2022/10/25 07:03:49;;;;;;;;;4.00;2.33;;;;;;;;5079830;27;45260;-79
2022/10/25 07:06:20;;;;;;;;;5.00;3.00;;;;;;;;5100093;27;45352;-79
2022/10/25 07:08:46;;;;;;;;;3.00;3.00;;;;;;;;5097851;27;45202;-79
2022/10/25 07:11:18;;;;;;;;;3.33;3.33;;;;;;;;5090069;27;45389;-79
2022/10/25 07:13:43;;;;;;;;;7.00;3.00;;;;;;;;5096015;27;45466;-79
2022/10/25 07:16:09;;;;;;;;;3.00;3.00;;;;;;;;5089865;27;45332;-79
2022/10/25 07:18:35;;;;;;;;;3.33;3.00;;;;;;;;5099464;27;45444;-80
2022/10/25 07:21:05;;;;;;;;;4.00;2.00;;;;;;;;5092407;27;45228;-80
2022/10/25 07:23:31;;;;;;;;;7.00;4.00;;;;;;;;5084617;27;44768;-79
2022/10/25 07:25:56;;;;;;;;;4.67;2.33;;;;;;;;5101430;27;45472;-79
2022/10/25 07:28:22;;;;;;;;;2.33;2.33;;;;;;;;5095410;27;45300;-79
2022/10/25 07:30:47;;;;;;;;;7.00;3.00;;;;;;;;5080221;27;47182;-79
2022/10/25 07:33:13;;;;;;;;;2.00;2.00;;;;;;;;5098917;27;46743;-79
2022/10/25 07:35:39;;;;;;;;;2.00;2.00;;;;;;;;5101028;27;45433;-79
2022/10/25 07:38:04;;;;;;;;;7.33;4.00;;;;;;;;5073764;28;45512;-79
2022/10/25 07:40:29;;;;;;;;;4.67;2.00;;;;;;;;5068650;28;47898;-79
2022/10/25 07:42:54;;;;;;;;;6.00;3.00;;;;;;;;5094096;27;45379;-79
2022/10/25 07:45:20;;;;;;;;;3.67;2.00;;;;;;;;5083627;27;45283;-79
2022/10/25 07:47:45;;;;;;;;;4.00;2.00;;;;;;;;5082502;27;45704;-79
2022/10/25 07:50:10;;;;;;;;;2.33;2.33;;;;;;;;5084221;27;45239;-79
2022/10/25 07:52:35;;;;;;;;;3.67;2.00;;;;;;;;5096043;27;45461;-79
2022/10/25 07:55:00;;;;;;;;;5.67;3.00;;;;;;;;5091615;27;45602;-79
2022/10/25 07:57:26;;;;;;;;;1.00;1.00;;;;;;;;5091836;27;45174;-81
2022/10/25 07:59:51;;;;;;;;;3.00;3.00;;;;;;;;5102558;27;46685;-80
2022/10/25 08:02:16;;;;;;;;;3.00;3.00;;;;;;;;5097051;27;44775;-80
2022/10/25 08:04:42;;;;;;;;;4.00;4.00;;;;;;;;5073394;28;44753;-80
2022/10/25 08:07:07;;;;;;;;;2.33;2.00;;;;;;;;5082812;27;45406;-80
2022/10/25 08:09:32;;;;;;;;;3.00;3.00;;;;;;;;5082610;27;46280;-80
2022/10/25 08:11:57;;;;;;;;;3.33;3.33;;;;;;;;5090906;27;45166;-79
2022/10/25 08:14:22;;;;;;;;;4.00;4.00;;;;;;;;5088717;27;45228;-80
2022/10/25 08:16:48;;;;;;;;;2.00;2.00;;;;;;;;5095518;27;45496;-80
2022/10/25 08:19:13;;;;;;;;;5.67;3.33;;;;;;;;5092143;27;46259;-80
2022/10/25 08:21:38;;;;;;;;;5.00;3.00;;;;;;;;5063402;27;45521;-80
2022/10/25 08:24:03;;;;;;;;;5.33;3.00;;;;;;;;5095729;27;45319;-80
2022/10/25 08:26:29;;;;;;;;;6.00;3.00;;;;;;;;5094774;27;45557;-80
2022/10/25 08:28:54;;;;;;;;;5.33;1.00;;;;;;;;5093468;27;46018;-80
2022/10/25 08:31:19;;;;;;;;;4.00;2.33;;;;;;;;5083289;27;45154;-80
2022/10/25 08:33:45;;;;;;;;;5.67;4.00;;;;;;;;5082351;27;45328;-80
2022/10/25 08:36:10;;;;;;;;;5.00;2.00;;;;;;;;5083612;27;45575;-80
2022/10/25 08:38:35;;;;;;;;;4.00;2.00;;;;;;;;5091433;27;45410;-80
2022/10/25 08:41:05;;;;;;;;;4.00;4.00;;;;;;;;5090519;27;45310;-80
2022/10/25 08:43:49;;;;;;;;;2.33;2.33;;;;;;;;5091967;27;45426;-80
2022/10/25 08:46:16;;;;;;;;;3.00;2.00;;;;;;;;5086364;27;45338;-80
2022/10/25 08:48:45;;;;;;;;;5.00;3.00;;;;;;;;5075973;27;47198;-80
2022/10/25 08:51:17;;;;;;;;;3.00;3.00;;;;;;;;5081902;27;45902;-80
2022/10/25 08:53:46;;;;;;;;;2.00;2.00;;;;;;;;5095209;27;45449;-80
2022/10/25 08:56:13;;;;;;;;;4.00;2.00;;;;;;;;5099753;27;45330;-80
2022/10/25 08:58:45;;;;;;;;;4.00;2.00;;;;;;;;5096940;27;45272;-80
2022/10/25 09:01:19;;;;;;;;;3.00;3.00;;;;;;;;5095921;27;45486;-81
2022/10/25 09:03:44;;;;;;;;;2.00;2.00;;;;;;;;5078493;27;45371;-80
2022/10/25 09:06:22;;;;;;;;;4.67;2.00;;;;;;;;5077600;27;45850;-80
2022/10/25 09:09:05;;;;;;;;;3.67;1.00;;;;;;;;5091951;27;45626;-80
2022/10/25 09:11:49;;;;;;;;;2.00;2.00;;;;;;;;5085497;27;45312;-80
2022/10/25 09:14:33;;;;;;;;;1.00;1.00;;;;;;;;5092153;27;45486;-80
2022/10/25 09:17:18;;;;;;;;;3.67;1.00;;;;;;;;5083079;27;45766;-80
2022/10/25 09:20:02;;;;;;;;;1.00;1.00;;;;;;;;5093417;27;45358;-80
2022/10/25 09:22:28;;;;;;;;;0.00;0.00;;;;;;;;5076723;28;45238;-79
2022/10/25 09:25:02;;;;;;;;;0.33;0.33;;;;;;;;5079252;27;45267;-80
2022/10/25 09:27:33;;;;;;;;;1.00;1.00;;;;;;;;5090808;27;45214;-80
2022/10/25 09:30:01;;;;;;;;;1.00;1.00;;;;;;;;5091423;27;46636;-80
2022/10/25 09:32:41;;;;;;;;;0.00;0.00;;;;;;;;5095460;27;45179;-80
2022/10/25 09:35:18;;;;;;;;;1.00;0.00;;;;;;;;5074382;27;46374;-80
2022/10/25 09:37:48;;;;;;;;;0.00;0.00;;;;;;;;5094961;27;45318;-80
2022/10/25 09:40:15;;;;;;;;;2.00;1.00;;;;;;;;5072561;28;47410;-80
2022/10/25 09:42:53;;;;;;;;;0.67;0.00;;;;;;;;5069602;27;45581;-80
2022/10/25 09:45:27;;;;;;;;;1.67;0.67;;;;;;;;5088538;27;45339;-80
2022/10/25 09:48:08;;;;;;;;;0.67;0.67;;;;;;;;5075171;28;45397;-80
2022/10/25 09:50:39;;;;;;;;;1.33;1.00;;;;;;;;5090048;27;45245;-81
2022/10/25 09:53:11;;;;;;;;;0.67;0.67;;;;;;;;5075591;27;45335;-80
2022/10/25 09:55:55;;;;;;;;;3.67;1.00;;;;;;;;5091752;27;45508;-80
2022/10/25 09:58:21;;;;;;;;;1.67;0.67;;;;;;;;5098511;27;45596;-80
2022/10/25 10:00:48;;;;;;;;;0.67;0.67;;;;;;;;5102318;27;45335;-81
2022/10/25 10:03:13;;;;;;;;;0.67;0.00;;;;;;;;5105402;27;45260;-80
2022/10/25 10:05:43;;;;;;;;;3.33;2.00;;;;;;;;5085482;27;45302;-81
2022/10/25 10:08:08;;;;;;;;;0.00;0.00;;;;;;;;5084411;27;45973;-80
2022/10/25 10:10:34;;;;;;;;;1.67;0.33;;;;;;;;5096184;27;46115;-80
2022/10/25 10:13:12;;;;;;;;;0.00;0.00;;;;;;;;5100959;27;45481;-79
2022/10/25 10:15:53;;;;;;;;;0.67;0.67;;;;;;;;5100193;27;45334;-81
2022/10/25 10:18:18;;;;;;;;;0.67;0.67;;;;;;;;5100728;27;45418;-80
2022/10/25 10:21:02;;;;;;;;;0.33;0.33;;;;;;;;5092281;27;45223;-80
2022/10/25 10:23:30;;;;;;;;;2.00;1.00;;;;;;;;5098137;27;45332;-80
2022/10/25 10:25:55;;;;;;;;;0.00;0.00;;;;;;;;5102907;27;45499;-80
2022/10/25 10:28:20;;;;;;;;;0.00;0.00;;;;;;;;5092623;27;45357;-81
2022/10/25 10:30:56;;;;;;;;;3.00;0.67;;;;;;;;5099125;27;46537;-80
2022/10/25 10:33:24;;;;;;;;;2.75;0.25;;;;;;;;5072446;27;45308;-80
2022/10/25 10:35:52;;;;;;;;;2.50;0.75;;;;;;;;5082019;27;45424;-80
2022/10/25 10:38:20;;;;;;;;;2.00;1.00;;;;;;;;5092658;27;45391;-80
2022/10/25 10:40:45;;;;;;;;;0.75;0.75;;;;;;;;5085711;27;46813;-81
2022/10/25 10:43:26;;;;;;;;;0.00;0.00;;;;;;;;5092926;27;45410;-80
2022/10/25 10:45:51;;;;;;;;;1.00;0.00;;;;;;;;5099066;27;45279;-81
2022/10/25 10:48:21;;;;;;;;;0.50;0.50;;;;;;;;5096683;27;45264;-80
2022/10/25 10:50:47;;;;;;;;;3.50;0.00;;;;;;;;5086718;27;45504;-80
2022/10/25 10:53:20;;;;;;;;;3.00;0.75;;;;;;;;5089094;27;45241;-80
2022/10/25 10:55:50;;;;;;;;;0.75;0.75;;;;;;;;5079886;27;45340;-81
2022/10/25 10:58:21;;;;;;;;;0.75;0.25;;;;;;;;5095134;27;45410;-80
2022/10/25 11:00:48;;;;;;;;;0.00;0.00;;;;;;;;5099427;27;45461;-80
2022/10/25 11:03:32;;;;;;;;;1.50;0.00;;;;;;;;5095178;27;45468;-81
2022/10/25 11:05:58;;;;;;;;;1.75;0.00;;;;;;;;5073572;27;45366;-80
2022/10/25 11:08:24;;;;;;;;;1.25;1.00;;;;;;;;5094614;27;45319;-80
2022/10/25 11:10:49;;;;;;;;;0.00;0.00;;;;;;;;5091801;27;45258;-80
2022/10/25 11:13:15;;;;;;;;;3.00;1.00;;;;;;;;5080326;27;45415;-80
2022/10/25 11:15:59;;;;;;;;;0.75;0.75;;;;;;;;5069446;28;45458;-80
2022/10/25 11:18:50;;;;;;;;;0.00;0.00;;;;;;;;5095878;27;45497;-80
2022/10/25 11:21:15;;;;;;;;;0.25;0.25;;;;;;;;5090422;27;45490;-80
2022/10/25 11:23:59;;;;;;;;;2.00;1.00;;;;;;;;5081526;27;46038;-81
2022/10/25 11:26:31;;;;;;;;;0.25;0.00;;;;;;;;5086164;27;45351;-80
2022/10/25 11:29:06;;;;;;;;;0.75;0.75;;;;;;;;5071463;27;47268;-80
2022/10/25 11:32:00;;;;;;;;;1.00;0.75;;;;;;;;5082419;27;48130;-80
2022/10/25 11:34:39;;;;;;;;;2.00;2.00;;;;;;;;5089838;27;45193;-80
2022/10/25 11:37:09;;;;;;;;;0.75;0.25;;;;;;;;5082370;27;45511;-81
2022/10/25 11:39:44;;;;;;;;;1.75;1.00;;;;;;;;5092831;27;45467;-80
2022/10/25 11:42:22;;;;;;;;;1.75;0.25;;;;;;;;5092351;27;45348;-80
2022/10/25 11:45:05;;;;;;;;;3.25;0.25;;;;;;;;5084208;27;45304;-80
2022/10/25 11:47:31;;;;;;;;;1.50;1.00;;;;;;;;5084709;27;45449;-81
2022/10/25 11:49:56;;;;;;;;;2.75;1.00;;;;;;;;5089789;27;45280;-80
2022/10/25 11:52:31;;;;;;;;;2.00;2.00;;;;;;;;5092688;27;45739;-80
2022/10/25 11:55:07;;;;;;;;;1.00;1.00;;;;;;;;5080850;27;45217;-80
2022/10/25 11:57:32;;;;;;;;;3.75;2.00;;;;;;;;5098379;27;45573;-80
2022/10/25 12:00:03;;;;;;;;;2.00;2.00;;;;;;;;5089478;27;45360;-80
2022/10/25 12:02:46;;;;;;;;;2.00;2.00;;;;;;;;5082056;27;46373;-80
2022/10/25 12:05:21;;;;;;;;;2.00;1.00;;;;;;;;5081683;27;45374;-80
2022/10/25 12:07:53;;;;;;;;;1.75;1.75;;;;;;;;5087337;27;45280;-80
2022/10/25 12:10:41;;;;;;;;;2.00;1.00;;;;;;;;5080213;27;46272;-80
2022/10/25 12:13:12;;;;;;;;;1.00;1.00;;;;;;;;5090050;27;46388;-80
2022/10/25 12:15:39;;;;;;;;;1.75;1.25;;;;;;;;5095353;27;45207;-80
2022/10/25 12:18:06;;;;;;;;;2.00;1.00;;;;;;;;5095724;27;45520;-80
2022/10/25 12:20:32;;;;;;;;;2.25;2.00;;;;;;;;5079484;27;46517;-80
2022/10/25 12:22:58;;;;;;;;;1.75;1.00;;;;;;;;5071854;27;47709;-80
2022/10/25 12:25:23;;;;;;;;;3.25;2.75;;;;;;;;5094788;27;45534;-80
2022/10/25 12:27:53;;;;;;;;;2.00;2.00;;;;;;;;5097448;27;45312;-81
2022/10/25 12:30:18;;;;;;;;;3.00;1.00;;;;;;;;5076533;27;47790;-80
2022/10/25 12:32:49;;;;;;;;;1.00;1.00;;;;;;;;5083772;27;47920;-80
2022/10/25 12:35:34;;;;;;;;;5.00;2.50;;;;;;;;5085012;27;45313;-80
2022/10/25 12:38:11;;;;;;;;;3.50;2.75;;;;;;;;5093712;27;45225;-80
2022/10/25 12:40:40;;;;;;;;;2.25;2.00;;;;;;;;5091004;27;45297;-80
2022/10/25 12:43:15;;;;;;;;;2.25;1.50;;;;;;;;5087141;27;45564;-80
2022/10/25 12:45:43;;;;;;;;;3.50;2.75;;;;;;;;5083812;27;45432;-80
2022/10/25 12:48:14;;;;;;;;;3.50;3.50;;;;;;;;5094772;27;45370;-80
2022/10/25 12:50:49;;;;;;;;;2.00;2.00;;;;;;;;5076828;27;47400;-80
2022/10/25 12:53:33;;;;;;;;;3.00;3.00;;;;;;;;5081428;27;47072;-80
2022/10/25 12:56:12;;;;;;;;;5.00;3.67;;;;;;;;5099847;27;45236;-79
2022/10/25 12:58:51;;;;;;;;;5.00;2.00;;;;;;;;5100005;27;45323;-79
2022/10/25 13:01:25;;;;;;;;;3.33;2.67;;;;;;;;5093822;27;45242;-79
2022/10/25 13:03:54;;;;;;;;;4.67;2.67;;;;;;;;5073654;27;46747;-79
2022/10/25 13:06:25;;;;;;;;;2.33;2.00;;;;;;;;5083416;27;45330;-79
2022/10/25 13:08:51;;;;;;;;;4.25;1.75;;;;;;;;5090958;27;45364;-79
2022/10/25 13:11:16;;;;;;;;;1.00;1.00;;;;;;;;5074785;28;45485;-80
2022/10/25 13:13:48;;;;;;;;;4.00;2.25;;;;;;;;5078130;27;46549;-79
2022/10/25 13:16:21;;;;;;;;;2.33;1.67;;;;;;;;5086930;27;45362;-79
2022/10/25 13:18:47;;;;;;;;;6.00;2.00;;;;;;;;5090933;27;45622;-79
2022/10/25 13:21:13;;;;;;;;;3.33;3.00;;;;;;;;5090593;27;45539;-79
2022/10/25 13:23:41;;;;;;;;;2.33;2.33;;;;;;;;5091302;27;45510;-79
2022/10/25 13:26:07;;;;;;;;;3.67;2.67;;;;;;;;5094571;27;45217;-80
2022/10/25 13:28:41;;;;;;;;;3.67;3.67;;;;;;;;5096139;27;45493;-80
2022/10/25 13:31:25;;;;;;;;;3.00;2.00;;;;;;;;5095284;27;45276;-80
2022/10/25 13:34:09;;;;;;;;;3.67;2.00;;;;;;;;5090954;27;46536;-80
2022/10/25 13:36:54;;;;;;;;;4.33;2.67;;;;;;;;5091792;27;45291;-80
2022/10/25 13:39:39;;;;;;;;;2.67;1.00;;;;;;;;5078246;27;45304;-80
2022/10/25 13:42:14;;;;;;;;;3.00;3.00;;;;;;;;5068209;27;45621;-80
2022/10/25 13:45:18;;;;;;;;;3.67;2.00;;;;;;;;5080481;27;46152;-80
2022/10/25 13:47:45;;;;;;;;;6.00;4.00;;;;;;;;4995769;28;45506;-80
2022/10/25 13:50:13;;;;;;;;;3.33;2.00;;;;;;;;4996276;28;45498;-80
2022/10/25 13:52:43;;;;;;;;;4.33;1.67;;;;;;;;5043451;27;45496;-79
2022/10/25 13:55:13;;;;;;;;;5.67;2.00;;;;;;;;5089620;27;45437;-80
2022/10/25 13:57:50;;;;;;;;;4.67;3.00;;;;;;;;5089467;27;44888;-80
2022/10/25 14:00:28;;;;;;;;;5.00;2.67;;;;;;;;5096664;27;45345;-80
2022/10/25 14:03:08;;;;;;;;;3.00;3.00;;;;;;;;5091803;27;45504;-79
2022/10/25 14:05:52;;;;;;;;;2.67;1.00;;;;;;;;5084525;27;45302;-79
2022/10/25 14:08:23;;;;;;;;;3.33;2.67;;;;;;;;5091833;27;45414;-80
2022/10/25 14:10:49;;;;;;;;;1.67;1.33;;;;;;;;5075732;27;45327;-80
2022/10/25 14:13:24;;;;;;;;;5.33;3.00;;;;;;;;5088225;27;45505;-80
2022/10/25 14:16:09;;;;;;;;;7.33;3.67;;;;;;;;5092700;27;45366;-80
2022/10/25 14:18:35;;;;;;;;;3.67;3.33;;;;;;;;5090250;27;45438;-79
2022/10/25 14:21:04;;;;;;;;;3.67;2.33;;;;;;;;5092392;27;45303;-80
2022/10/25 14:23:32;;;;;;;;;3.67;3.67;;;;;;;;5089651;27;45656;-80
2022/10/25 14:25:58;;;;;;;;;5.33;2.33;;;;;;;;5078279;27;45426;-80
2022/10/25 14:28:28;;;;;;;;;2.67;1.67;;;;;;;;5079449;27;45384;-79
2022/10/25 14:31:01;;;;;;;;;2.00;2.00;;;;;;;;5074591;27;45435;-79
2022/10/25 14:33:34;;;;;;;;;3.67;2.67;;;;;;;;5087304;27;45320;-79
2022/10/25 14:36:05;;;;;;;;;3.67;2.00;;;;;;;;5077821;27;47072;-79
2022/10/25 14:38:31;;;;;;;;;4.33;2.67;;;;;;;;5086879;27;45296;-79
2022/10/25 14:40:58;;;;;;;;;4.33;0.67;;;;;;;;5078143;27;45280;-79
2022/10/25 14:43:23;;;;;;;;;4.00;3.00;;;;;;;;5076329;27;46195;-79
2022/10/25 14:46:09;;;;;;;;;2.00;2.00;;;;;;;;5088396;27;45360;-79
2022/10/25 14:48:35;;;;;;;;;7.33;3.00;;;;;;;;5082590;27;45292;-79
2022/10/25 14:51:05;;;;;;;;;2.67;2.67;;;;;;;;5088410;27;45332;-79
2022/10/25 14:53:30;;;;;;;;;3.67;2.33;;;;;;;;5091077;27;45262;-79